Time;durP1;ratioP1;P1;durP2;ratioP2;P2;SDS_P1;SDS_P2;PMS_P1;PMS_P2;Temp;Humidity;BMP_temperature;BMP_pressure;BME280_temperature;BME280_humidity;BME280_pressure;Samples;Min_cycle;Max_cycle;Signal;HPM_P1;HPM_P2
2023/10/30 00:01:55;;;;;;;0.70;0.70;;;10.10;99.90;;;;;;5076416;28;20087;-70
2023/10/30 00:04:21;;;;;;;0.80;0.80;;;10.10;99.90;;;;;;5076135;28;20047;-71
2023/10/30 00:06:47;;;;;;;0.85;0.85;;;9.80;99.90;;;;;;5076177;28;20047;-71
2023/10/30 00:09:15;;;;;;;1.60;1.50;;;10.60;99.90;;;;;;5075591;28;20044;-72
2023/10/30 00:11:41;;;;;;;0.70;0.70;;;9.80;99.90;;;;;;5075681;28;20053;-73
2023/10/30 00:14:07;;;;;;;0.70;0.70;;;9.80;99.90;;;;;;5076446;28;20051;-71
2023/10/30 00:16:33;;;;;;;0.70;0.70;;;9.90;99.90;;;;;;5075503;28;20044;-73
2023/10/30 00:19:02;;;;;;;0.80;0.80;;;9.70;99.90;;;;;;5075859;28;20070;-72
2023/10/30 00:21:28;;;;;;;0.80;0.80;;;10.50;99.90;;;;;;5075904;28;20364;-71
2023/10/30 00:23:53;;;;;;;0.80;0.80;;;9.70;99.90;;;;;;5075743;28;20039;-71
2023/10/30 00:26:19;;;;;;;0.70;0.70;;;10.30;99.90;;;;;;5075830;28;20040;-71
2023/10/30 00:28:45;;;;;;;1.40;0.90;;;9.70;99.90;;;;;;5075716;28;20032;-72
2023/10/30 00:31:10;;;;;;;0.80;0.80;;;9.70;99.90;;;;;;5075717;28;20044;-71
2023/10/30 00:33:36;;;;;;;0.80;0.80;;;10.20;99.90;;;;;;5075650;28;20048;-73
2023/10/30 00:36:02;;;;;;;0.70;0.70;;;9.90;99.90;;;;;;5074186;28;20373;-72
2023/10/30 00:38:27;;;;;;;0.70;0.70;;;9.70;99.90;;;;;;5075376;28;20044;-71
2023/10/30 00:40:53;;;;;;;0.70;0.70;;;9.70;99.90;;;;;;5075828;28;20059;-73
2023/10/30 00:43:19;;;;;;;0.90;0.90;;;9.70;99.90;;;;;;5074619;28;20040;-73
2023/10/30 00:45:45;;;;;;;0.80;0.80;;;9.80;99.90;;;;;;5075476;28;20376;-70
2023/10/30 00:48:10;;;;;;;0.80;0.80;;;9.70;99.90;;;;;;5075350;28;20037;-71
2023/10/30 00:50:36;;;;;;;0.80;0.80;;;10.40;99.90;;;;;;5075258;28;20032;-72
2023/10/30 00:53:02;;;;;;;0.80;0.80;;;9.70;99.90;;;;;;5075170;28;20049;-72
2023/10/30 00:55:27;;;;;;;0.70;0.70;;;9.60;99.90;;;;;;5074813;28;20033;-73
2023/10/30 00:57:53;;;;;;;0.80;0.80;;;9.70;99.90;;;;;;5075101;28;20122;-71
2023/10/30 01:00:18;;;;;;;1.13;1.02;;;9.70;99.90;;;;;;5075257;28;20102;-71
2023/10/30 01:02:44;;;;;;;0.80;0.80;;;9.70;99.90;;;;;;5075081;28;20040;-70
2023/10/30 01:05:10;;;;;;;0.80;0.80;;;9.60;99.90;;;;;;5073733;28;20044;-72
2023/10/30 01:07:36;;;;;;;0.70;0.70;;;9.60;99.90;;;;;;5074734;28;20083;-72
2023/10/30 01:10:02;;;;;;;0.70;0.70;;;9.60;99.90;;;;;;5074872;28;20087;-72
2023/10/30 01:12:27;;;;;;;0.80;0.80;;;9.60;99.90;;;;;;5074804;28;20338;-72
2023/10/30 01:14:53;;;;;;;0.75;0.75;;;9.60;99.90;;;;;;5074834;28;20032;-70
2023/10/30 01:17:18;;;;;;;0.80;0.80;;;9.60;99.90;;;;;;5074195;28;20044;-72
2023/10/30 01:19:44;;;;;;;0.80;0.80;;;9.60;99.90;;;;;;5074545;28;20033;-74
2023/10/30 01:22:10;;;;;;;0.80;0.80;;;9.60;99.90;;;;;;5074692;28;20040;-72
2023/10/30 01:24:36;;;;;;;0.77;0.77;;;10.30;99.90;;;;;;5074537;28;20037;-72
2023/10/30 01:27:02;;;;;;;0.80;0.80;;;9.60;99.90;;;;;;5074460;28;20070;-71
2023/10/30 01:29:27;;;;;;;0.80;0.80;;;9.60;99.90;;;;;;5074470;28;20123;-71
2023/10/30 01:31:53;;;;;;;0.75;0.75;;;9.60;99.90;;;;;;5074691;28;20179;-71
2023/10/30 01:34:19;;;;;;;1.23;1.13;;;9.50;99.90;;;;;;5074699;28;20036;-72
2023/10/30 01:36:44;;;;;;;0.80;0.80;;;9.60;99.90;;;;;;5074244;28;20098;-72
2023/10/30 01:39:10;;;;;;;0.80;0.80;;;9.60;99.90;;;;;;5074159;28;20090;-71
2023/10/30 01:41:36;;;;;;;0.80;0.80;;;9.60;99.90;;;;;;5074242;28;20047;-72
2023/10/30 01:44:01;;;;;;;0.77;0.77;;;9.60;99.90;;;;;;5074377;28;20059;-71
2023/10/30 01:46:27;;;;;;;0.80;0.80;;;10.00;99.90;;;;;;5073153;28;20507;-71
2023/10/30 01:48:52;;;;;;;0.73;0.73;;;9.60;99.90;;;;;;5074151;28;20032;-73
2023/10/30 01:51:20;;;;;;;0.80;0.80;;;9.60;99.90;;;;;;5074078;28;20464;-73
2023/10/30 01:53:47;;;;;;;0.70;0.70;;;9.60;99.90;;;;;;5073969;28;20044;-71
2023/10/30 01:56:14;;;;;;;0.80;0.80;;;9.70;99.90;;;;;;5073928;28;20047;-73
2023/10/30 01:58:40;;;;;;;0.80;0.80;;;9.60;99.90;;;;;;5074279;28;20039;-73
2023/10/30 02:01:06;;;;;;;0.80;0.80;;;9.60;99.90;;;;;;5074006;28;20392;-72
2023/10/30 02:03:33;;;;;;;0.80;0.80;;;9.60;99.90;;;;;;5073902;28;20124;-73
2023/10/30 02:05:59;;;;;;;0.80;0.80;;;9.60;99.90;;;;;;5073783;28;20040;-71
2023/10/30 02:08:25;;;;;;;0.90;0.90;;;9.80;99.90;;;;;;5074011;28;20067;-72
2023/10/30 02:10:51;;;;;;;1.00;1.00;;;9.70;99.90;;;;;;5073964;28;20090;-73
2023/10/30 02:13:17;;;;;;;0.80;0.80;;;9.70;99.90;;;;;;5073780;28;20041;-72
2023/10/30 02:15:42;;;;;;;1.42;1.33;;;9.70;99.90;;;;;;5073648;28;20419;-74
2023/10/30 02:18:08;;;;;;;0.73;0.73;;;10.70;99.90;;;;;;5073688;28;20045;-72
2023/10/30 02:20:34;;;;;;;0.98;0.80;;;9.80;99.90;;;;;;5073654;28;20044;-71
2023/10/30 02:23:00;;;;;;;0.80;0.80;;;9.80;99.90;;;;;;5073652;28;20044;-71
2023/10/30 02:25:26;;;;;;;0.90;0.90;;;9.80;99.90;;;;;;5074062;28;20068;-72
2023/10/30 02:27:52;;;;;;;0.80;0.80;;;9.80;99.90;;;;;;5073597;28;20080;-72
2023/10/30 02:30:19;;;;;;;0.70;0.70;;;9.90;99.90;;;;;;5073784;28;20090;-71
2023/10/30 02:32:47;;;;;;;0.73;0.73;;;9.90;99.90;;;;;;5073559;28;20040;-71
2023/10/30 02:35:13;;;;;;;0.70;0.70;;;9.90;99.90;;;;;;5072299;28;20394;-71
2023/10/30 02:37:40;;;;;;;0.70;0.70;;;9.90;99.90;;;;;;5073369;28;20047;-72
2023/10/30 02:40:07;;;;;;;0.80;0.80;;;10.00;99.90;;;;;;5073944;28;20174;-72
2023/10/30 02:42:32;;;;;;;0.70;0.70;;;10.00;99.90;;;;;;5072142;28;20086;-72
2023/10/30 02:44:58;;;;;;;0.75;0.75;;;10.20;99.90;;;;;;5073417;28;20447;-72
2023/10/30 02:47:24;;;;;;;0.80;0.80;;;10.30;99.90;;;;;;5073355;28;20079;-72
2023/10/30 02:49:50;;;;;;;0.70;0.70;;;10.10;99.90;;;;;;5072216;28;20354;-71
2023/10/30 02:52:18;;;;;;;0.70;0.70;;;10.10;99.90;;;;;;5073205;28;20049;-71
2023/10/30 02:54:47;;;;;;;0.75;0.75;;;10.20;99.90;;;;;;5073705;28;20045;-71
2023/10/30 02:57:15;;;;;;;0.70;0.70;;;10.10;99.90;;;;;;5073199;28;20036;-73
2023/10/30 02:59:41;;;;;;;0.80;0.80;;;10.20;99.90;;;;;;5073206;28;20109;-73
2023/10/30 03:02:08;;;;;;;0.70;0.70;;;10.20;99.90;;;;;;5073199;28;20134;-73
2023/10/30 03:04:33;;;;;;;0.70;0.70;;;10.70;99.90;;;;;;5073317;28;20116;-71
2023/10/30 03:06:59;;;;;;;0.70;0.70;;;10.20;99.90;;;;;;5075047;28;20037;-72
2023/10/30 03:09:31;;;;;;;0.80;0.80;;;10.80;99.90;;;;;;5077218;28;20123;-70
2023/10/30 03:11:57;;;;;;;0.70;0.70;;;10.30;99.90;;;;;;5077065;28;20040;-70
2023/10/30 03:14:24;;;;;;;0.70;0.70;;;10.30;99.90;;;;;;5077022;28;20036;-70
2023/10/30 03:16:50;;;;;;;0.70;0.70;;;10.20;99.90;;;;;;5077073;28;20035;-72
2023/10/30 03:19:16;;;;;;;34.53;3.95;;;10.20;99.90;;;;;;5076924;28;20378;-71
2023/10/30 03:21:42;;;;;;;0.70;0.70;;;10.10;99.90;;;;;;5076908;28;20115;-72
2023/10/30 03:24:08;;;;;;;0.80;0.80;;;10.10;99.90;;;;;;5077294;28;20570;-72
2023/10/30 03:26:34;;;;;;;1.38;1.27;;;10.10;99.90;;;;;;5076902;28;20353;-71
2023/10/30 03:28:59;;;;;;;0.70;0.70;;;10.10;99.90;;;;;;5076823;28;20037;-71
2023/10/30 03:31:25;;;;;;;0.80;0.80;;;10.10;99.90;;;;;;5076580;28;20036;-71
2023/10/30 03:33:51;;;;;;;0.73;0.73;;;10.10;99.90;;;;;;5076812;28;20565;-71
2023/10/30 03:36:23;;;;;;;0.80;0.80;;;10.20;99.90;;;;;;5076481;28;20045;-71
2023/10/30 03:38:52;;;;;;;0.80;0.80;;;10.10;99.90;;;;;;5076501;28;20048;-71
2023/10/30 03:41:18;;;;;;;0.70;0.70;;;10.80;99.90;;;;;;5076554;28;20040;-73
2023/10/30 03:43:44;;;;;;;1.00;0.95;;;10.10;99.90;;;;;;5076649;28;20088;-70
2023/10/30 03:46:10;;;;;;;0.75;0.75;;;10.10;99.90;;;;;;5076372;28;20044;-72
2023/10/30 03:48:35;;;;;;;0.70;0.70;;;10.10;99.90;;;;;;5076310;28;20036;-72
2023/10/30 03:51:02;;;;;;;0.70;0.70;;;10.00;99.90;;;;;;5075371;28;20036;-72
2023/10/30 03:53:29;;;;;;;0.70;0.70;;;10.10;99.90;;;;;;5076165;28;20598;-72
2023/10/30 03:55:55;;;;;;;0.77;0.77;;;10.10;99.90;;;;;;5075679;28;20037;-74
2023/10/30 03:58:20;;;;;;;0.70;0.70;;;10.00;99.90;;;;;;5076451;28;20097;-71
2023/10/30 04:00:46;;;;;;;0.70;0.70;;;10.10;99.90;;;;;;5076070;28;20044;-70
2023/10/30 04:03:11;;;;;;;0.70;0.70;;;10.10;99.90;;;;;;5076156;28;20541;-72
2023/10/30 04:05:38;;;;;;;2.15;1.65;;;10.00;99.90;;;;;;5076481;28;20047;-72
2023/10/30 04:08:03;;;;;;;1.30;1.20;;;10.00;99.90;;;;;;5076341;28;20102;-71
2023/10/30 04:10:29;;;;;;;0.70;0.70;;;10.00;99.90;;;;;;5076175;28;20286;-73
2023/10/30 04:12:55;;;;;;;0.70;0.70;;;10.00;99.90;;;;;;5076047;28;20361;-73
2023/10/30 04:15:21;;;;;;;0.70;0.70;;;10.00;99.90;;;;;;5075530;28;20055;-72
2023/10/30 04:17:46;;;;;;;0.70;0.70;;;10.00;99.90;;;;;;5073503;28;20036;-72
2023/10/30 04:20:12;;;;;;;0.70;0.70;;;10.00;99.90;;;;;;5075849;28;20043;-71
2023/10/30 04:22:38;;;;;;;0.80;0.80;;;10.00;99.90;;;;;;5075814;28;20098;-72
2023/10/30 04:25:08;;;;;;;0.80;0.80;;;9.90;99.90;;;;;;5075809;28;20039;-72
2023/10/30 04:27:33;;;;;;;0.70;0.70;;;9.90;99.90;;;;;;5075751;28;20043;-73
2023/10/30 04:30:02;;;;;;;1.65;1.00;;;10.00;99.90;;;;;;5074623;28;20115;-71
2023/10/30 04:32:28;;;;;;;0.70;0.70;;;9.90;99.90;;;;;;5075586;28;20472;-71
2023/10/30 04:34:53;;;;;;;0.70;0.70;;;10.00;99.90;;;;;;5075569;28;20105;-70
2023/10/30 04:37:20;;;;;;;0.70;0.70;;;10.00;99.90;;;;;;5075453;28;20072;-71
2023/10/30 04:39:46;;;;;;;;;;;9.90;99.90;;;;;;5075948;28;20056;-70
2023/10/30 04:42:12;;;;;;;0.70;0.70;;;9.80;99.90;;;;;;5075118;28;19916;-71
2023/10/30 04:44:38;;;;;;;0.73;0.73;;;9.80;99.90;;;;;;5075324;28;20636;-72
2023/10/30 04:47:04;;;;;;;0.70;0.70;;;9.80;99.90;;;;;;5075448;28;20032;-71
2023/10/30 04:49:34;;;;;;;0.70;0.70;;;9.80;99.90;;;;;;5075210;28;20033;-72
2023/10/30 04:52:00;;;;;;;1.17;1.08;;;9.80;99.90;;;;;;5075207;28;20045;-71
2023/10/30 04:54:26;;;;;;;0.70;0.70;;;9.90;99.90;;;;;;5075666;28;20040;-71
2023/10/30 04:56:51;;;;;;;0.70;0.70;;;9.70;99.90;;;;;;5075198;28;20480;-71
2023/10/30 04:59:17;;;;;;;0.70;0.70;;;10.20;99.90;;;;;;5075033;28;20044;-73
2023/10/30 05:01:42;;;;;;;0.70;0.70;;;9.70;99.90;;;;;;5073566;28;20119;-71
2023/10/30 05:04:08;;;;;;;0.70;0.70;;;10.40;99.90;;;;;;5074925;28;20053;-72
2023/10/30 05:06:34;;;;;;;0.70;0.70;;;9.70;99.90;;;;;;5074919;28;20036;-72
2023/10/30 05:08:59;;;;;;;0.80;0.80;;;9.70;99.90;;;;;;5075266;28;20052;-73
2023/10/30 05:11:25;;;;;;;7.43;1.80;;;9.60;99.90;;;;;;5073775;28;20049;-73
2023/10/30 05:13:51;;;;;;;0.70;0.70;;;9.60;99.90;;;;;;5074736;28;20052;-71
2023/10/30 05:16:16;;;;;;;0.85;0.85;;;10.30;99.90;;;;;;5073347;28;20028;-71
2023/10/30 05:18:42;;;;;;;0.70;0.70;;;9.60;99.90;;;;;;5074689;28;20044;-72
2023/10/30 05:21:07;;;;;;;0.63;0.63;;;9.50;99.90;;;;;;5074652;28;20044;-73
2023/10/30 05:23:33;;;;;;;0.60;0.60;;;9.50;99.90;;;;;;5074501;28;20487;-72
2023/10/30 05:25:59;;;;;;;0.70;0.70;;;9.50;99.90;;;;;;5074404;28;20037;-73
2023/10/30 05:28:25;;;;;;;0.70;0.70;;;9.50;99.90;;;;;;5074543;28;20119;-71
2023/10/30 05:30:50;;;;;;;0.70;0.70;;;9.90;99.90;;;;;;5074117;28;20059;-71
2023/10/30 05:33:16;;;;;;;0.70;0.70;;;9.50;99.90;;;;;;5073953;28;20037;-71
2023/10/30 05:35:42;;;;;;;0.70;0.70;;;9.50;99.90;;;;;;5074714;28;20353;-71
2023/10/30 05:38:08;;;;;;;0.80;0.80;;;9.60;99.90;;;;;;5073962;28;20488;-72
2023/10/30 05:40:34;;;;;;;0.75;0.75;;;9.50;99.90;;;;;;5073110;28;20195;-72
2023/10/30 05:42:59;;;;;;;0.70;0.70;;;9.50;99.90;;;;;;5074381;28;20036;-71
2023/10/30 05:45:25;;;;;;;0.80;0.80;;;9.60;99.90;;;;;;5074297;28;20059;-71
2023/10/30 05:47:51;;;;;;;0.70;0.70;;;9.50;99.90;;;;;;5074088;28;20055;-71
2023/10/30 05:50:16;;;;;;;0.80;0.80;;;9.90;99.90;;;;;;5074105;28;20048;-71
2023/10/30 05:52:42;;;;;;;0.80;0.80;;;9.40;99.90;;;;;;5073920;28;20468;-72
2023/10/30 05:55:08;;;;;;;0.68;0.68;;;9.50;99.90;;;;;;5073968;28;20044;-73
2023/10/30 05:57:34;;;;;;;0.70;0.70;;;9.50;99.90;;;;;;5073996;28;20433;-71
2023/10/30 06:00:01;;;;;;;0.70;0.70;;;9.40;99.90;;;;;;5073964;28;20040;-71
2023/10/30 06:02:26;;;;;;;4.47;1.43;;;9.40;99.90;;;;;;5073915;28;20040;-71
2023/10/30 06:04:52;;;;;;;0.70;0.70;;;9.40;99.90;;;;;;5073942;28;20052;-74
2023/10/30 06:07:17;;;;;;;0.75;0.75;;;9.50;99.90;;;;;;5073735;28;20048;-73
2023/10/30 06:09:45;;;;;;;0.70;0.70;;;10.20;99.90;;;;;;5074170;28;20036;-71
2023/10/30 06:12:11;;;;;;;0.80;0.80;;;9.50;99.90;;;;;;5073523;28;20055;-73
2023/10/30 06:14:36;;;;;;;0.80;0.80;;;9.50;99.90;;;;;;5073837;28;20041;-73
2023/10/30 06:17:02;;;;;;;1.45;1.35;;;9.50;99.90;;;;;;5073591;28;20408;-73
2023/10/30 06:19:28;;;;;;;0.70;0.70;;;9.50;99.90;;;;;;5073351;28;20051;-71
2023/10/30 06:21:54;;;;;;;0.80;0.80;;;9.60;99.90;;;;;;5073922;28;20102;-74
2023/10/30 06:24:19;;;;;;;1.95;1.70;;;9.60;99.90;;;;;;5073652;28;20473;-71
2023/10/30 06:26:45;;;;;;;0.90;0.90;;;9.90;99.90;;;;;;5073447;28;20047;-73
2023/10/30 06:29:11;;;;;;;0.80;0.80;;;10.10;99.90;;;;;;5073439;28;20536;-73
2023/10/30 06:31:36;;;;;;;0.70;0.70;;;9.60;99.90;;;;;;5073458;28;20082;-71
2023/10/30 06:34:02;;;;;;;0.70;0.70;;;9.60;99.90;;;;;;5073523;28;20086;-72
2023/10/30 06:36:28;;;;;;;0.70;0.70;;;9.60;99.90;;;;;;5073850;28;20123;-73
2023/10/30 06:38:57;;;;;;;2.30;1.15;;;9.70;99.90;;;;;;5073473;28;20047;-74
2023/10/30 06:41:23;;;;;;;0.70;0.70;;;9.90;99.90;;;;;;5072811;28;20474;-72
2023/10/30 06:43:48;;;;;;;0.70;0.70;;;9.70;99.90;;;;;;5073176;28;20055;-73
2023/10/30 06:46:14;;;;;;;0.80;0.80;;;9.70;99.90;;;;;;5073497;28;20040;-71
2023/10/30 06:48:39;;;;;;;0.90;0.90;;;9.80;99.90;;;;;;5073296;28;20465;-72
2023/10/30 06:51:05;;;;;;;0.70;0.70;;;9.60;99.90;;;;;;5073389;28;20540;-73
2023/10/30 06:53:31;;;;;;;0.80;0.80;;;9.70;99.90;;;;;;5073361;28;20043;-72
2023/10/30 06:55:57;;;;;;;0.70;0.70;;;9.70;99.90;;;;;;5073278;28;20476;-71
2023/10/30 06:58:23;;;;;;;0.70;0.70;;;9.90;99.90;;;;;;5073244;28;20040;-70
2023/10/30 07:00:49;;;;;;;0.70;0.70;;;9.70;99.90;;;;;;5073185;28;20040;-73
2023/10/30 07:03:15;;;;;;;0.80;0.80;;;9.70;99.90;;;;;;5071928;28;20083;-72
2023/10/30 07:05:42;;;;;;;0.88;0.88;;;10.10;99.90;;;;;;5073235;28;20036;-72
2023/10/30 07:08:07;;;;;;;7.28;1.60;;;9.70;99.90;;;;;;5073165;28;20362;-73
2023/10/30 07:10:33;;;;;;;0.77;0.77;;;9.70;99.90;;;;;;5073155;28;20051;-74
2023/10/30 07:12:59;;;;;;;0.80;0.80;;;9.80;99.90;;;;;;5073231;28;20529;-72
2023/10/30 07:15:26;;;;;;;0.77;0.77;;;9.80;99.90;;;;;;5073009;28;20124;-73
2023/10/30 07:17:55;;;;;;;0.70;0.70;;;9.80;99.90;;;;;;5072923;28;20472;-72
2023/10/30 07:20:21;;;;;;;0.70;0.70;;;9.80;99.90;;;;;;5073349;28;20123;-73
2023/10/30 07:22:47;;;;;;;0.80;0.80;;;9.80;99.90;;;;;;5073083;28;20503;-73
2023/10/30 07:25:12;;;;;;;0.70;0.70;;;9.80;99.90;;;;;;5073231;28;20033;-74
2023/10/30 07:27:38;;;;;;;0.80;0.80;;;9.80;99.90;;;;;;5073026;28;20053;-79
2023/10/30 07:30:04;;;;;;;1.45;1.15;;;10.10;99.90;;;;;;5071961;28;20125;-70
2023/10/30 07:32:30;;;;;;;0.80;0.80;;;9.90;99.90;;;;;;5072972;28;20044;-76
2023/10/30 07:34:56;;;;;;;0.82;0.82;;;10.80;99.90;;;;;;5073300;28;20619;-76
2023/10/30 07:37:21;;;;;;;1.08;0.98;;;10.00;99.90;;;;;;5072899;28;20040;-77
2023/10/30 07:39:47;;;;;;;0.80;0.80;;;10.00;99.90;;;;;;5071703;28;20468;-73
2023/10/30 07:42:13;;;;;;;0.80;0.80;;;10.20;99.90;;;;;;5072736;28;20456;-75
2023/10/30 07:44:39;;;;;;;0.70;0.70;;;10.10;99.90;;;;;;5071932;28;20052;-74
2023/10/30 07:47:05;;;;;;;0.77;0.77;;;10.20;99.90;;;;;;5072420;28;20528;-72
2023/10/30 07:49:30;;;;;;;0.80;0.80;;;10.30;99.90;;;;;;5071697;28;20132;-69
2023/10/30 07:51:56;;;;;;;1.13;1.05;;;10.30;99.90;;;;;;5073076;28;20080;-71
2023/10/30 07:54:22;;;;;;;0.70;0.70;;;10.40;99.90;;;;;;5076347;28;20044;-70
2023/10/30 07:56:49;;;;;;;0.80;0.80;;;10.40;99.90;;;;;;5074971;28;20384;-70
2023/10/30 07:59:14;;;;;;;0.80;0.80;;;10.50;99.90;;;;;;5074768;28;20388;-71
2023/10/30 08:01:40;;;;;;;0.70;0.70;;;10.50;99.90;;;;;;5076192;28;20119;-71
2023/10/30 08:04:06;;;;;;;0.70;0.70;;;10.60;99.90;;;;;;5076189;28;20076;-72
2023/10/30 08:06:32;;;;;;;0.60;0.60;;;10.70;99.90;;;;;;5076179;28;20048;-69
2023/10/30 08:08:58;;;;;;;0.80;0.80;;;10.70;99.90;;;;;;5075823;28;20055;-71
2023/10/30 08:11:24;;;;;;;0.70;0.70;;;11.70;99.90;;;;;;5075979;28;20040;-71
2023/10/30 08:13:50;;;;;;;0.70;0.70;;;10.80;99.90;;;;;;5075996;28;20044;-71
2023/10/30 08:16:15;;;;;;;0.77;0.77;;;10.90;99.90;;;;;;5075751;28;20039;-71
2023/10/30 08:18:42;;;;;;;0.70;0.70;;;10.90;99.90;;;;;;5075667;28;20075;-70
2023/10/30 08:21:07;;;;;;;0.80;0.80;;;11.00;99.90;;;;;;5075941;28;20033;-70
2023/10/30 08:23:36;;;;;;;0.70;0.70;;;11.00;99.90;;;;;;5075538;28;20067;-70
2023/10/30 08:26:03;;;;;;;0.68;0.68;;;11.50;99.90;;;;;;5075804;28;20037;-70
2023/10/30 08:28:29;;;;;;;0.60;0.60;;;11.10;99.90;;;;;;5074584;28;20052;-70
2023/10/30 08:30:55;;;;;;;0.73;0.73;;;11.10;99.90;;;;;;5075632;28;20052;-71
2023/10/30 08:33:20;;;;;;;0.70;0.70;;;11.20;99.90;;;;;;5075665;28;20040;-71
2023/10/30 08:35:46;;;;;;;2.42;2.25;;;11.30;99.90;;;;;;5075505;28;20069;-71
2023/10/30 08:38:12;;;;;;;0.70;0.70;;;11.30;99.90;;;;;;5075477;28;20087;-70
2023/10/30 08:40:38;;;;;;;0.70;0.70;;;11.40;99.90;;;;;;5075502;28;20465;-71
2023/10/30 08:43:03;;;;;;;0.70;0.70;;;11.40;99.90;;;;;;5075393;28;20045;-70
2023/10/30 08:45:29;;;;;;;1.23;1.13;;;11.50;99.90;;;;;;5075171;28;20476;-71
2023/10/30 08:47:55;;;;;;;0.60;0.60;;;11.60;99.90;;;;;;5075871;28;20376;-70
2023/10/30 08:50:20;;;;;;;0.68;0.68;;;11.60;99.90;;;;;;5075685;28;20072;-70
2023/10/30 08:52:46;;;;;;;0.93;0.93;;;11.70;99.90;;;;;;5075332;28;20040;-71
2023/10/30 08:55:11;;;;;;;0.60;0.60;;;11.70;99.90;;;;;;5075160;28;20059;-72
2023/10/30 08:57:37;;;;;;;0.60;0.60;;;11.70;99.90;;;;;;5073924;28;20139;-72
2023/10/30 09:00:07;;;;;;;0.85;0.85;;;11.90;99.90;;;;;;5075248;28;20052;-72
2023/10/30 09:02:35;;;;;;;0.60;0.60;;;11.90;99.90;;;;;;5075044;28;20491;-72
2023/10/30 09:05:02;;;;;;;0.60;0.60;;;11.90;99.90;;;;;;5074388;28;20048;-76
2023/10/30 09:07:29;;;;;;;;;;;12.00;99.90;;;;;;5075327;28;20135;-72
2023/10/30 09:09:55;;;;;;;0.60;0.60;;;12.60;99.90;;;;;;5074818;28;19916;-72
2023/10/30 09:12:21;;;;;;;0.60;0.60;;;12.00;99.90;;;;;;5074897;28;20039;-70
2023/10/30 09:14:46;;;;;;;0.60;0.60;;;12.10;99.90;;;;;;5074704;28;20040;-74
2023/10/30 09:17:12;;;;;;;0.60;0.60;;;12.20;99.90;;;;;;5074739;28;20033;-72
2023/10/30 09:19:38;;;;;;;0.50;0.50;;;12.20;99.90;;;;;;5073694;28;20044;-72
2023/10/30 09:22:05;;;;;;;;;;;12.20;99.90;;;;;;5074811;28;20137;-71
2023/10/30 09:24:30;;;;;;;0.88;0.88;;;12.30;99.90;;;;;;5074357;28;19956;-74
2023/10/30 09:26:56;;;;;;;0.60;0.60;;;12.30;99.90;;;;;;5074495;28;20415;-72
2023/10/30 09:29:21;;;;;;;0.60;0.60;;;12.30;99.90;;;;;;5074356;28;20491;-70
2023/10/30 09:31:49;;;;;;;0.70;0.70;;;12.20;99.90;;;;;;5074289;28;20129;-73
2023/10/30 09:34:15;;;;;;;0.60;0.60;;;12.20;99.90;;;;;;5074003;28;20080;-69
2023/10/30 09:36:41;;;;;;;0.60;0.60;;;12.10;99.90;;;;;;5074124;28;20075;-72
2023/10/30 09:39:07;;;;;;;0.60;0.60;;;12.10;99.90;;;;;;5073923;28;20474;-71
2023/10/30 09:41:39;;;;;;;0.90;0.80;;;12.00;99.90;;;;;;5073987;28;20048;-69
2023/10/30 09:44:08;;;;;;;0.60;0.60;;;12.10;99.90;;;;;;5074128;28;20089;-70
2023/10/30 09:46:34;;;;;;;0.90;0.90;;;12.10;99.90;;;;;;5073735;28;20094;-73
2023/10/30 09:49:00;;;;;;;1.87;1.77;;;12.10;99.90;;;;;;5072653;28;20127;-71
2023/10/30 09:51:27;;;;;;;0.60;0.60;;;12.10;99.90;;;;;;5073603;28;20370;-71
2023/10/30 09:53:54;;;;;;;0.50;0.50;;;12.20;99.90;;;;;;5073651;28;20048;-71
2023/10/30 09:56:21;;;;;;;0.60;0.60;;;12.20;99.90;;;;;;5073184;28;20036;-71
2023/10/30 09:58:48;;;;;;;0.60;0.60;;;12.20;99.90;;;;;;5072995;28;20098;-70
2023/10/30 10:01:13;;;;;;;1.05;1.05;;;12.20;99.90;;;;;;5072277;28;20044;-75
2023/10/30 10:03:39;;;;;;;0.60;0.60;;;12.20;99.90;;;;;;5072459;28;20037;-71
2023/10/30 10:06:04;;;;;;;0.60;0.60;;;12.20;99.90;;;;;;5073600;28;20048;-71
2023/10/30 10:08:30;;;;;;;0.60;0.60;;;12.30;99.90;;;;;;5073595;28;20056;-71
2023/10/30 10:11:00;;;;;;;0.60;0.60;;;12.30;99.90;;;;;;5073128;28;20350;-72
2023/10/30 10:13:29;;;;;;;1.40;0.80;;;12.40;99.90;;;;;;5072967;28;20048;-72
2023/10/30 10:15:55;;;;;;;0.60;0.60;;;12.40;99.90;;;;;;5072598;28;20029;-71
2023/10/30 10:18:34;;;;;;;0.50;0.50;;;12.50;99.90;;;;;;5073350;28;20036;-71
2023/10/30 10:21:11;;;;;;;0.60;0.60;;;12.60;99.90;;;;;;5072750;28;20032;-72
2023/10/30 10:23:38;;;;;;;0.73;0.73;;;12.70;99.90;;;;;;5071924;28;20048;-71
2023/10/30 10:26:05;;;;;;;;;;;12.90;99.90;;;;;;5072204;28;20131;-72
2023/10/30 10:28:31;;;;;;;0.60;0.60;;;13.10;99.90;;;;;;5073034;28;19924;-72
2023/10/30 10:30:58;;;;;;;0.60;0.60;;;13.20;99.90;;;;;;5072926;28;20388;-71
2023/10/30 10:33:27;;;;;;;0.60;0.60;;;13.50;99.90;;;;;;5072134;28;20071;-72
2023/10/30 10:36:02;;;;;;;0.60;0.60;;;13.40;99.90;;;;;;5072188;28;20123;-72
2023/10/30 10:38:28;;;;;;;0.55;0.55;;;13.40;99.90;;;;;;5072967;28;20062;-71
2023/10/30 10:40:57;;;;;;;0.50;0.50;;;13.50;99.90;;;;;;5073317;28;20040;-72
2023/10/30 10:43:27;;;;;;;0.60;0.60;;;13.50;99.90;;;;;;5073270;28;20044;-72
2023/10/30 10:45:55;;;;;;;0.55;0.55;;;13.50;99.90;;;;;;5073032;28;20041;-72
2023/10/30 10:48:23;;;;;;;0.50;0.50;;;13.60;99.90;;;;;;5072977;28;20044;-72
2023/10/30 10:50:49;;;;;;;0.50;0.50;;;13.60;99.90;;;;;;5072840;28;20481;-71
2023/10/30 10:53:18;;;;;;;0.60;0.60;;;13.60;99.90;;;;;;5072904;28;20094;-72
2023/10/30 10:55:46;;;;;;;0.68;0.60;;;13.60;99.90;;;;;;5073139;28;20047;-72
2023/10/30 10:58:17;;;;;;;0.60;0.60;;;13.60;99.90;;;;;;5072827;28;20476;-72
2023/10/30 11:00:50;;;;;;;0.60;0.60;;;13.50;99.90;;;;;;5071738;28;20049;-71
2023/10/30 11:03:17;;;;;;;1.35;1.30;;;13.70;99.90;;;;;;5072934;28;20032;-71
2023/10/30 11:05:44;;;;;;;0.50;0.50;;;13.50;99.90;;;;;;5072805;28;20062;-72
2023/10/30 11:08:10;;;;;;;1.02;1.02;;;13.50;99.90;;;;;;5072572;28;20049;-72
2023/10/30 11:10:58;;;;;;;0.50;0.50;;;13.50;99.90;;;;;;5072905;28;20067;-72
2023/10/30 11:13:44;;;;;;;;;;;13.50;99.90;;;;;;5073508;28;20041;-72
2023/10/30 11:16:33;;;;;;;0.50;0.50;;;13.50;99.90;;;;;;5072131;28;19916;-72
2023/10/30 11:19:00;;;;;;;1.40;0.98;;;13.50;99.90;;;;;;5072880;28;20468;-71
2023/10/30 11:21:27;;;;;;;0.50;0.50;;;13.50;99.90;;;;;;5072912;28;20415;-74
2023/10/30 11:23:57;;;;;;;0.50;0.50;;;13.50;99.90;;;;;;5070917;28;20062;-71
2023/10/30 11:26:44;;;;;;;0.50;0.50;;;13.60;99.90;;;;;;5072251;28;20040;-72
2023/10/30 11:29:11;;;;;;;0.60;0.60;;;13.50;99.90;;;;;;5074899;28;20037;-73
2023/10/30 11:31:57;;;;;;;0.60;0.60;;;13.60;99.90;;;;;;5076262;28;20047;-74
2023/10/30 11:34:43;;;;;;;0.50;0.50;;;13.50;99.90;;;;;;5076515;28;20119;-72
2023/10/30 11:37:14;;;;;;;0.50;0.50;;;13.50;99.90;;;;;;5076210;28;20345;-72
2023/10/30 11:39:42;;;;;;;0.50;0.50;;;13.60;99.90;;;;;;5076569;28;20086;-72
2023/10/30 11:42:23;;;;;;;1.05;0.98;;;13.50;99.90;;;;;;5075635;28;20055;-72
2023/10/30 11:45:18;;;;;;;0.50;0.50;;;13.60;99.90;;;;;;5075210;28;20058;-74
2023/10/30 11:47:49;;;;;;;0.43;0.43;;;13.60;99.90;;;;;;5072535;28;20109;-74
2023/10/30 11:50:18;;;;;;;0.60;0.60;;;13.60;99.90;;;;;;5076335;28;20037;-73
2023/10/30 11:52:50;;;;;;;0.57;0.57;;;13.60;99.90;;;;;;5076050;28;20044;-72
2023/10/30 11:55:19;;;;;;;0.50;0.50;;;13.70;99.90;;;;;;5076260;28;20067;-72
2023/10/30 11:57:44;;;;;;;0.57;0.57;;;13.80;99.90;;;;;;5076148;28;20036;-72
2023/10/30 12:00:11;;;;;;;0.60;0.60;;;13.90;99.90;;;;;;5075934;28;20063;-72
2023/10/30 12:02:41;;;;;;;0.50;0.50;;;13.90;99.90;;;;;;5076076;28;20131;-71
2023/10/30 12:05:08;;;;;;;0.50;0.50;;;14.00;99.90;;;;;;5075996;28;20045;-72
2023/10/30 12:07:33;;;;;;;0.50;0.50;;;14.00;99.90;;;;;;5075680;28;20071;-72
2023/10/30 12:10:03;;;;;;;1.15;0.60;;;14.20;99.90;;;;;;5074763;28;20036;-71
2023/10/30 12:12:31;;;;;;;0.52;0.52;;;14.20;99.90;;;;;;5075473;28;20131;-71
2023/10/30 12:14:58;;;;;;;0.50;0.50;;;14.30;99.90;;;;;;5075318;28;20058;-71
2023/10/30 12:17:24;;;;;;;0.70;0.70;;;14.30;99.90;;;;;;5075390;28;20043;-69
2023/10/30 12:19:49;;;;;;;0.60;0.60;;;14.40;99.90;;;;;;5075417;28;20066;-70
2023/10/30 12:22:15;;;;;;;0.50;0.50;;;14.40;99.90;;;;;;5075501;28;20033;-69
2023/10/30 12:24:42;;;;;;;0.70;0.70;;;14.40;99.90;;;;;;5074322;28;20091;-70
2023/10/30 12:27:08;;;;;;;0.50;0.50;;;14.40;99.90;;;;;;5073011;28;20487;-71
2023/10/30 12:29:34;;;;;;;0.50;0.50;;;14.40;99.90;;;;;;5073649;28;20045;-71
2023/10/30 12:32:02;;;;;;;0.60;0.60;;;14.30;99.90;;;;;;5073458;28;20071;-71
2023/10/30 12:34:28;;;;;;;0.50;0.50;;;14.40;99.90;;;;;;5074885;28;20127;-71
2023/10/30 12:36:54;;;;;;;0.60;0.60;;;14.40;99.90;;;;;;5075416;28;20144;-71
2023/10/30 12:39:21;;;;;;;0.50;0.50;;;14.40;99.90;;;;;;5074413;28;20087;-71
2023/10/30 12:41:52;;;;;;;0.50;0.50;;;14.40;99.90;;;;;;5074936;28;20045;-71
2023/10/30 12:44:18;;;;;;;0.50;0.50;;;14.40;99.90;;;;;;5075355;28;20085;-71
2023/10/30 12:46:45;;;;;;;1.35;1.25;;;14.30;99.90;;;;;;5075040;28;20047;-71
2023/10/30 12:49:11;;;;;;;0.60;0.60;;;14.30;99.90;;;;;;5075305;28;20051;-70
2023/10/30 12:51:37;;;;;;;0.50;0.50;;;14.20;99.90;;;;;;5073977;28;20044;-71